createdAt,value
2018-03-20T00:00:54.510Z,986.42
2018-03-20T00:01:54.537Z,986.46
2018-03-20T00:02:54.565Z,986.49
2018-03-20T00:03:54.631Z,986.53
2018-03-20T00:04:54.616Z,986.51
2018-03-20T00:05:54.656Z,986.49
2018-03-20T00:06:54.670Z,986.52
2018-03-20T00:07:54.716Z,986.54
2018-03-20T00:08:54.723Z,986.54
2018-03-20T00:09:54.783Z,986.55
2018-03-20T00:10:54.778Z,986.60
2018-03-20T00:11:54.803Z,986.60
2018-03-20T00:12:54.830Z,986.63
2018-03-20T00:13:54.857Z,986.66
2018-03-20T00:14:54.884Z,986.63
2018-03-20T00:15:54.931Z,986.66
2018-03-20T00:16:54.938Z,986.68
2018-03-20T00:17:54.964Z,986.73
2018-03-20T00:18:54.991Z,986.74
2018-03-20T00:19:55.019Z,986.71
2018-03-20T00:20:55.044Z,986.74
2018-03-20T00:21:55.077Z,986.75
2018-03-20T00:22:55.098Z,986.79
2018-03-20T00:23:55.125Z,986.77
2018-03-20T00:24:55.151Z,986.83
2018-03-20T00:25:55.178Z,986.81
2018-03-20T00:26:55.205Z,986.83
2018-03-20T00:27:55.232Z,986.84
2018-03-20T00:28:55.258Z,986.84
2018-03-20T00:29:55.285Z,986.83
2018-03-20T00:30:55.312Z,986.83
2018-03-20T00:31:55.339Z,986.85
2018-03-20T00:32:55.365Z,986.86
2018-03-20T00:33:55.392Z,986.87
2018-03-20T00:34:55.419Z,986.88
2018-03-20T00:35:55.446Z,986.88
2018-03-20T00:36:55.472Z,986.89
2018-03-20T00:37:55.500Z,986.90
2018-03-20T00:38:55.526Z,986.89
2018-03-20T00:39:55.552Z,986.89
2018-03-20T00:40:55.579Z,986.89
2018-03-20T00:41:55.606Z,986.94
2018-03-20T00:42:55.638Z,986.92
2018-03-20T00:43:55.659Z,986.90
2018-03-20T00:44:55.704Z,986.91
2018-03-20T00:45:55.713Z,986.90
2018-03-20T00:46:55.740Z,986.94
2018-03-20T00:47:55.766Z,986.95
2018-03-20T00:48:55.793Z,986.92
2018-03-20T00:49:55.820Z,986.91
2018-03-20T00:50:55.847Z,986.93
2018-03-20T00:51:55.910Z,986.94
2018-03-20T00:52:55.899Z,986.91
2018-03-20T00:53:55.927Z,986.94
2018-03-20T00:54:55.954Z,986.95
2018-03-20T00:55:55.979Z,986.94
2018-03-20T00:56:56.007Z,986.98
2018-03-20T00:57:56.064Z,987.00
2018-03-20T00:58:56.060Z,987.01
2018-03-20T00:59:56.086Z,987.01
2018-03-20T01:00:56.113Z,987.02
2018-03-20T01:01:56.140Z,987.01
2018-03-20T01:02:56.175Z,987.03
2018-03-20T01:03:56.193Z,987.09
2018-03-20T01:04:56.220Z,987.07
2018-03-20T01:05:56.248Z,987.07
2018-03-20T01:06:56.274Z,987.11
2018-03-20T01:07:56.300Z,987.12
2018-03-20T01:08:56.326Z,987.08
2018-03-20T01:09:56.353Z,987.09
2018-03-20T01:10:56.382Z,987.12
2018-03-20T01:11:56.406Z,987.10
2018-03-20T01:12:56.434Z,987.15
2018-03-20T01:13:56.463Z,987.11
2018-03-20T01:14:56.521Z,987.16
2018-03-20T01:15:56.524Z,987.11
2018-03-20T01:16:56.560Z,987.13
2018-03-20T01:17:56.579Z,987.20
2018-03-20T01:18:56.599Z,987.19
2018-03-20T01:19:56.622Z,987.20
2018-03-20T01:20:56.651Z,987.16
2018-03-20T01:21:56.675Z,987.20
2018-03-20T01:22:56.702Z,987.22
2018-03-20T01:23:56.733Z,987.23
2018-03-20T01:24:56.754Z,987.20
2018-03-20T01:25:56.788Z,987.25
2018-03-20T01:26:56.808Z,987.23
2018-03-20T01:27:56.834Z,987.23
2018-03-20T01:28:56.861Z,987.29
2018-03-20T01:29:56.888Z,987.27
2018-03-20T01:30:56.920Z,987.27
2018-03-20T01:31:56.941Z,987.27
2018-03-20T01:32:56.968Z,987.29
2018-03-20T01:33:56.995Z,987.31
2018-03-20T01:34:57.022Z,987.31
2018-03-20T01:35:57.047Z,987.32
2018-03-20T01:36:57.075Z,987.32
2018-03-20T01:37:57.101Z,987.33
2018-03-20T01:38:57.129Z,987.36
2018-03-20T01:39:57.155Z,987.36
2018-03-20T01:40:57.201Z,987.35
2018-03-20T01:41:57.209Z,987.39
2018-03-20T01:42:57.235Z,987.39
2018-03-20T01:43:57.262Z,987.41
2018-03-20T01:44:57.289Z,987.40
2018-03-20T01:45:57.315Z,987.39
2018-03-20T01:46:57.343Z,987.43
2018-03-20T01:47:57.368Z,987.38
2018-03-20T01:48:57.395Z,987.45
2018-03-20T01:49:57.422Z,987.45
2018-03-20T01:50:57.452Z,987.45
2018-03-20T01:51:57.475Z,987.39
2018-03-20T01:52:57.501Z,987.46
2018-03-20T01:53:57.534Z,987.47
2018-03-20T01:54:57.556Z,987.51
2018-03-20T01:55:57.596Z,987.51
2018-03-20T01:56:57.625Z,987.51
2018-03-20T01:57:57.637Z,987.55
2018-03-20T01:58:57.663Z,987.55
2018-03-20T01:59:57.689Z,987.55
2018-03-20T02:00:57.715Z,987.53
2018-03-20T02:01:57.742Z,987.58
2018-03-20T02:02:57.769Z,987.59
2018-03-20T02:03:57.795Z,987.60
2018-03-20T02:04:57.823Z,987.62
2018-03-20T02:05:57.849Z,987.61
2018-03-20T02:06:57.909Z,987.60
2018-03-20T02:07:57.908Z,987.63
2018-03-20T02:08:57.930Z,987.62
2018-03-20T02:09:57.957Z,987.65
2018-03-20T02:10:57.983Z,987.65
2018-03-20T02:11:58.009Z,987.69
2018-03-20T02:12:58.035Z,987.68
2018-03-20T02:13:58.064Z,987.68
2018-03-20T02:14:58.090Z,987.70
2018-03-20T02:15:58.116Z,987.67
2018-03-20T02:16:58.180Z,987.67
2018-03-20T02:17:58.169Z,987.70
2018-03-20T02:18:58.225Z,987.70
2018-03-20T02:19:58.222Z,987.70
2018-03-20T02:20:58.249Z,987.69
2018-03-20T02:21:58.277Z,987.77
2018-03-20T02:22:58.303Z,987.76
2018-03-20T02:23:58.330Z,987.77
2018-03-20T02:24:58.356Z,987.78
2018-03-20T02:25:58.383Z,987.79
2018-03-20T02:26:58.444Z,987.74
2018-03-20T02:27:58.436Z,987.82
2018-03-20T02:28:58.463Z,987.80
2018-03-20T02:29:58.489Z,987.80
2018-03-20T02:30:58.517Z,987.82
2018-03-20T02:31:58.554Z,987.83
2018-03-20T02:32:58.570Z,987.85
2018-03-20T02:33:58.597Z,987.84
2018-03-20T02:34:58.624Z,987.86
2018-03-20T02:35:58.649Z,987.82
2018-03-20T02:36:58.676Z,987.87
2018-03-20T02:37:58.703Z,987.87
2018-03-20T02:38:58.730Z,987.88
2018-03-20T02:39:58.755Z,987.88
2018-03-20T02:40:58.783Z,987.91
2018-03-20T02:41:58.836Z,987.88
2018-03-20T02:42:58.837Z,987.91
2018-03-20T02:43:58.862Z,987.89
2018-03-20T02:44:58.890Z,987.90
2018-03-20T02:45:58.917Z,987.93
2018-03-20T02:46:58.943Z,987.94
2018-03-20T02:47:58.969Z,987.95
2018-03-20T02:48:58.996Z,987.92
2018-03-20T02:49:59.023Z,987.98
2018-03-20T02:50:59.051Z,987.95
2018-03-20T02:51:59.076Z,987.95
2018-03-20T02:52:59.103Z,987.96
2018-03-20T02:53:59.129Z,988.01
2018-03-20T02:54:59.158Z,988.01
2018-03-20T02:55:59.182Z,988.03
2018-03-20T02:56:59.211Z,988.05
2018-03-20T02:57:59.238Z,988.04
2018-03-20T02:58:59.265Z,988.06
2018-03-20T02:59:59.289Z,988.05
2018-03-20T03:00:59.318Z,988.09
2018-03-20T03:01:59.343Z,988.13
2018-03-20T03:02:59.370Z,988.12
2018-03-20T03:03:59.400Z,988.13
2018-03-20T03:04:59.425Z,988.17
2018-03-20T03:05:59.449Z,988.20
2018-03-20T03:06:59.517Z,988.24
2018-03-20T03:07:59.502Z,988.23
2018-03-20T03:08:59.529Z,988.26
2018-03-20T03:09:59.556Z,988.27
2018-03-20T03:10:59.583Z,988.26
2018-03-20T03:11:59.609Z,988.31
2018-03-20T03:12:59.636Z,988.28
2018-03-20T03:13:59.663Z,988.32
2018-03-20T03:14:59.696Z,988.29
2018-03-20T03:15:59.716Z,988.33
2018-03-20T03:16:59.743Z,988.35
2018-03-20T03:17:59.769Z,988.34
2018-03-20T03:18:59.796Z,988.38
2018-03-20T03:19:59.823Z,988.39
2018-03-20T03:20:59.850Z,988.41
2018-03-20T03:21:59.876Z,988.39
2018-03-20T03:22:59.904Z,988.41
2018-03-20T03:23:59.929Z,988.41
2018-03-20T03:24:59.961Z,988.45
2018-03-20T03:25:59.993Z,988.46
2018-03-20T03:27:00.043Z,988.46
2018-03-20T03:28:00.036Z,988.50
2018-03-20T03:29:00.064Z,988.49
2018-03-20T03:30:00.090Z,988.52
2018-03-20T03:31:00.119Z,988.51
2018-03-20T03:32:00.143Z,988.53
2018-03-20T03:33:00.170Z,988.53
2018-03-20T03:34:00.197Z,988.53
2018-03-20T03:35:00.225Z,988.58
2018-03-20T03:36:00.250Z,988.60
2018-03-20T03:37:00.289Z,988.65
2018-03-20T03:38:00.303Z,988.58
2018-03-20T03:39:00.331Z,988.63
2018-03-20T03:40:00.356Z,988.65
2018-03-20T03:41:00.403Z,988.69
2018-03-20T03:42:00.442Z,988.67
2018-03-20T03:43:00.444Z,988.67
2018-03-20T03:44:00.464Z,988.68
2018-03-20T03:45:00.519Z,988.71
2018-03-20T03:46:00.518Z,988.69
2018-03-20T03:47:00.544Z,988.69
2018-03-20T03:48:00.572Z,988.74
2018-03-20T03:49:00.597Z,988.76
2018-03-20T03:50:00.624Z,988.74
2018-03-20T03:51:00.682Z,988.74
2018-03-20T03:52:00.677Z,988.76
2018-03-20T03:53:00.709Z,988.78
2018-03-20T03:54:00.731Z,988.81
2018-03-20T03:55:00.758Z,988.80
2018-03-20T03:56:00.786Z,988.83
2018-03-20T03:57:00.811Z,988.85
2018-03-20T03:58:00.837Z,988.90
2018-03-20T03:59:00.865Z,988.96
2018-03-20T04:00:00.892Z,988.92
2018-03-20T04:01:00.920Z,988.98
2018-03-20T04:02:00.975Z,988.98
2018-03-20T04:03:01.007Z,989.04
2018-03-20T04:04:01.003Z,989.05
2018-03-20T04:05:01.026Z,989.07
2018-03-20T04:06:01.052Z,989.10
2018-03-20T04:07:01.078Z,989.10
2018-03-20T04:08:01.105Z,989.15
2018-03-20T04:09:01.180Z,989.20
2018-03-20T04:10:01.159Z,989.17
2018-03-20T04:11:01.185Z,989.23
2018-03-20T04:12:01.211Z,989.22
2018-03-20T04:13:01.256Z,989.21
2018-03-20T04:14:01.265Z,989.26
2018-03-20T04:15:01.292Z,989.26
2018-03-20T04:16:01.318Z,989.28
2018-03-20T04:17:01.347Z,989.28
2018-03-20T04:18:01.372Z,989.30
2018-03-20T04:19:01.403Z,989.35
2018-03-20T04:20:01.426Z,989.32
2018-03-20T04:21:01.476Z,989.33
2018-03-20T04:22:01.479Z,989.36
2018-03-20T04:23:01.507Z,989.37
2018-03-20T04:24:01.531Z,989.40
2018-03-20T04:25:01.561Z,989.38
2018-03-20T04:26:01.586Z,989.42
2018-03-20T04:27:01.613Z,989.51
2018-03-20T04:28:01.690Z,989.51
2018-03-20T04:29:01.666Z,989.53
2018-03-20T04:30:01.693Z,989.57
2018-03-20T04:31:01.719Z,989.58
2018-03-20T04:32:01.745Z,989.62
2018-03-20T04:33:01.773Z,989.60
2018-03-20T04:34:01.832Z,989.60
2018-03-20T04:35:01.826Z,989.65
2018-03-20T04:36:01.880Z,989.64
2018-03-20T04:37:01.879Z,989.65
2018-03-20T04:38:01.906Z,989.67
2018-03-20T04:39:01.933Z,989.69
2018-03-20T04:40:01.997Z,989.71
2018-03-20T04:41:01.986Z,989.72
2018-03-20T04:42:02.012Z,989.77
2018-03-20T04:43:02.041Z,989.82
2018-03-20T04:44:02.100Z,989.86
2018-03-20T04:45:02.094Z,989.87
2018-03-20T04:46:02.119Z,989.92
2018-03-20T04:47:02.146Z,989.94
2018-03-20T04:48:02.173Z,989.92
2018-03-20T04:49:02.200Z,989.99
2018-03-20T04:50:02.226Z,990.01
2018-03-20T04:51:02.256Z,990.04
2018-03-20T04:52:02.279Z,990.06
2018-03-20T04:53:02.306Z,990.07
2018-03-20T04:54:02.333Z,990.07
2018-03-20T04:55:02.360Z,990.08
2018-03-20T04:56:02.385Z,990.08
2018-03-20T04:57:02.414Z,990.14
2018-03-20T04:58:02.440Z,990.17
2018-03-20T04:59:02.467Z,990.18
2018-03-20T05:00:02.510Z,990.19
2018-03-20T05:01:02.519Z,990.27
2018-03-20T05:02:02.547Z,990.26
2018-03-20T05:03:02.573Z,990.25
2018-03-20T05:04:02.599Z,990.23
2018-03-20T05:05:02.626Z,990.25
2018-03-20T05:06:02.654Z,990.29
2018-03-20T05:07:02.724Z,990.28
2018-03-20T05:08:02.706Z,990.28
2018-03-20T05:09:02.733Z,990.32
2018-03-20T05:10:02.760Z,990.36
2018-03-20T05:11:02.787Z,990.41
2018-03-20T05:12:02.813Z,990.42
2018-03-20T05:13:02.840Z,990.42
2018-03-20T05:14:02.867Z,990.44
2018-03-20T05:15:02.895Z,990.49
2018-03-20T05:16:02.920Z,990.51
2018-03-20T05:17:02.946Z,990.55
2018-03-20T05:18:02.977Z,990.56
2018-03-20T05:19:03.009Z,990.60
2018-03-20T05:20:03.026Z,990.62
2018-03-20T05:21:03.053Z,990.60
2018-03-20T05:22:03.080Z,990.68
2018-03-20T05:23:03.108Z,990.71
2018-03-20T05:24:03.133Z,990.70
2018-03-20T05:25:03.163Z,990.73
2018-03-20T05:26:03.187Z,990.79
2018-03-20T05:27:03.214Z,990.74
2018-03-20T05:28:03.240Z,990.80
2018-03-20T05:29:03.267Z,990.81
2018-03-20T05:30:03.298Z,990.86
2018-03-20T05:31:03.320Z,990.94
2018-03-20T05:32:03.347Z,990.91
2018-03-20T05:33:03.377Z,990.93
2018-03-20T05:34:03.401Z,990.93
2018-03-20T05:35:03.427Z,990.97
2018-03-20T05:36:03.454Z,990.94
2018-03-20T05:37:03.511Z,991.02
2018-03-20T05:38:03.507Z,991.10
2018-03-20T05:39:03.534Z,991.09
2018-03-20T05:40:03.561Z,991.07
2018-03-20T05:41:03.592Z,991.20
2018-03-20T05:42:03.616Z,991.07
2018-03-20T05:43:03.643Z,991.14
2018-03-20T05:44:03.667Z,991.14
2018-03-20T05:45:03.696Z,991.26
2018-03-20T05:46:03.721Z,991.17
2018-03-20T05:47:03.752Z,991.28
2018-03-20T05:48:03.774Z,991.22
2018-03-20T05:49:03.802Z,991.30
2018-03-20T05:50:03.833Z,991.22
2018-03-20T05:51:03.861Z,991.17
2018-03-20T05:52:03.895Z,991.26
2018-03-20T05:53:03.911Z,991.41
2018-03-20T05:54:03.935Z,991.36
2018-03-20T05:55:03.965Z,991.43
2018-03-20T05:56:03.988Z,991.33
2018-03-20T05:57:04.015Z,991.35
2018-03-20T05:58:04.043Z,991.35
2018-03-20T05:59:04.069Z,991.35
2018-03-20T06:00:04.096Z,991.46
2018-03-20T06:01:04.126Z,991.41
2018-03-20T06:02:04.200Z,991.34
2018-03-20T06:03:04.176Z,991.39
2018-03-20T06:04:04.237Z,991.50
2018-03-20T06:05:04.244Z,991.46
2018-03-20T06:06:04.259Z,991.45
2018-03-20T06:07:04.284Z,991.49
2018-03-20T06:08:04.310Z,991.52
2018-03-20T06:09:04.341Z,991.49
2018-03-20T06:10:04.364Z,991.52
2018-03-20T06:11:04.391Z,991.53
2018-03-20T06:12:04.417Z,991.56
2018-03-20T06:13:04.444Z,991.59
2018-03-20T06:14:04.473Z,991.58
2018-03-20T06:15:04.499Z,991.58
2018-03-20T06:16:04.553Z,991.60
2018-03-20T06:17:04.553Z,991.71
2018-03-20T06:18:04.580Z,991.66
2018-03-20T06:19:04.608Z,991.66
2018-03-20T06:20:04.633Z,991.70
2018-03-20T06:21:04.663Z,991.72
2018-03-20T06:22:04.690Z,991.73
2018-03-20T06:23:04.715Z,991.78
2018-03-20T06:24:04.741Z,991.81
2018-03-20T06:25:04.772Z,991.83
2018-03-20T06:26:04.831Z,991.87
2018-03-20T06:27:04.823Z,991.86
2018-03-20T06:28:04.848Z,991.92
2018-03-20T06:29:04.878Z,991.89
2018-03-20T06:30:04.906Z,991.92
2018-03-20T06:31:04.930Z,991.97
2018-03-20T06:32:04.957Z,992.06
2018-03-20T06:33:04.986Z,992.06
2018-03-20T06:34:05.053Z,992.13
2018-03-20T06:35:05.042Z,992.06
2018-03-20T06:36:05.064Z,992.10
2018-03-20T06:37:05.092Z,992.15
2018-03-20T06:38:05.151Z,992.12
2018-03-20T06:39:05.146Z,992.16
2018-03-20T06:40:05.176Z,992.18
2018-03-20T06:41:05.202Z,992.17
2018-03-20T06:42:05.227Z,992.20
2018-03-20T06:43:05.254Z,992.25
2018-03-20T06:44:05.282Z,992.26
2018-03-20T06:45:05.308Z,992.24
2018-03-20T06:46:05.339Z,992.31
2018-03-20T06:47:05.368Z,992.33
2018-03-20T06:48:05.446Z,992.30
2018-03-20T06:49:05.421Z,992.32
2018-03-20T06:50:05.444Z,992.36
2018-03-20T06:51:05.469Z,992.38
2018-03-20T06:52:05.504Z,992.33
2018-03-20T06:53:05.524Z,992.46
2018-03-20T06:54:05.550Z,992.47
2018-03-20T06:55:05.621Z,992.65
2018-03-20T06:56:05.606Z,992.53
2018-03-20T06:57:05.631Z,992.62
2018-03-20T06:58:05.661Z,992.62
2018-03-20T06:59:05.686Z,992.58
2018-03-20T07:00:05.713Z,992.60
2018-03-20T07:01:05.741Z,992.64
2018-03-20T07:02:05.767Z,992.67
2018-03-20T07:03:05.800Z,992.74
2018-03-20T07:04:05.846Z,992.75
2018-03-20T07:05:05.849Z,992.80
2018-03-20T07:06:05.908Z,992.82
2018-03-20T07:07:05.903Z,992.80
2018-03-20T07:08:05.931Z,992.85
2018-03-20T07:09:05.957Z,992.87
2018-03-20T07:10:05.991Z,992.91
2018-03-20T07:11:06.012Z,992.99
2018-03-20T07:12:06.046Z,992.99
2018-03-20T07:13:06.065Z,993.04
2018-03-20T07:14:06.092Z,993.00
2018-03-20T07:15:06.127Z,993.10
2018-03-20T07:16:06.149Z,993.14
2018-03-20T07:17:06.173Z,993.11
2018-03-20T07:18:06.204Z,993.18
2018-03-20T07:19:06.262Z,993.21
2018-03-20T07:20:06.252Z,993.18
2018-03-20T07:21:06.281Z,993.24
2018-03-20T07:22:06.329Z,993.34
2018-03-20T07:23:06.337Z,993.29
2018-03-20T07:24:06.363Z,993.39
2018-03-20T07:25:06.388Z,993.42
2018-03-20T07:26:06.420Z,993.41
2018-03-20T07:27:06.444Z,993.39
2018-03-20T07:28:06.470Z,993.46
2018-03-20T07:29:06.496Z,993.51
2018-03-20T07:30:06.544Z,993.52
2018-03-20T07:31:06.550Z,993.52
2018-03-20T07:32:06.580Z,993.56
2018-03-20T07:33:06.604Z,993.57
2018-03-20T07:34:06.631Z,993.62
2018-03-20T07:35:06.666Z,993.59
2018-03-20T07:36:06.686Z,993.62
2018-03-20T07:37:07.698Z,993.67
2018-03-20T07:38:06.740Z,993.67
2018-03-20T07:39:06.769Z,993.70
2018-03-20T07:40:06.800Z,993.70
2018-03-20T07:41:06.821Z,993.71
2018-03-20T07:42:06.849Z,993.73
2018-03-20T07:43:06.877Z,993.79
2018-03-20T07:44:06.909Z,993.80
2018-03-20T07:45:06.933Z,993.78
2018-03-20T07:46:06.954Z,993.87
2018-03-20T07:47:06.983Z,993.96
2018-03-20T07:48:07.008Z,993.92
2018-03-20T07:49:07.035Z,993.92
2018-03-20T07:50:07.067Z,993.97
2018-03-20T07:51:07.094Z,993.98
2018-03-20T07:52:07.121Z,994.00
2018-03-20T07:53:07.144Z,993.94
2018-03-20T07:54:07.173Z,993.96
2018-03-20T07:55:07.200Z,994.01
2018-03-20T07:56:07.266Z,994.05
2018-03-20T07:57:07.255Z,994.12
2018-03-20T07:58:07.280Z,994.09
2018-03-20T07:59:07.307Z,994.08
2018-03-20T08:00:07.340Z,994.10
2018-03-20T08:01:07.362Z,994.12
2018-03-20T08:02:07.390Z,994.10
2018-03-20T08:03:07.419Z,994.17
2018-03-20T08:04:07.442Z,994.21
2018-03-20T08:05:07.470Z,994.25
2018-03-20T08:06:07.498Z,994.23
2018-03-20T08:07:07.524Z,994.26
2018-03-20T08:08:07.554Z,994.27
2018-03-20T08:09:07.579Z,994.28
2018-03-20T08:10:07.604Z,994.29
2018-03-20T08:11:07.634Z,994.31
2018-03-20T08:12:07.658Z,994.30
2018-03-20T08:13:07.730Z,994.26
2018-03-20T08:14:07.719Z,994.33
2018-03-20T08:15:07.784Z,994.32
2018-03-20T08:16:07.767Z,994.36
2018-03-20T08:17:07.795Z,994.41
2018-03-20T08:18:07.824Z,994.45
2018-03-20T08:19:07.861Z,994.43
2018-03-20T08:20:07.877Z,994.44
2018-03-20T08:21:07.907Z,994.46
2018-03-20T08:22:07.940Z,994.49
2018-03-20T08:23:07.959Z,994.48
2018-03-20T08:24:07.985Z,994.50
2018-03-20T08:25:08.012Z,994.56
2018-03-20T08:26:08.040Z,994.61
2018-03-20T08:27:08.068Z,994.58
2018-03-20T08:28:08.094Z,994.62
2018-03-20T08:29:08.121Z,994.68
2018-03-20T08:30:08.155Z,994.71
2018-03-20T08:31:08.176Z,994.70
2018-03-20T08:32:08.204Z,994.71
2018-03-20T08:33:08.232Z,994.70
2018-03-20T08:34:08.262Z,994.73
2018-03-20T08:35:08.293Z,994.78
2018-03-20T08:36:08.311Z,994.78
2018-03-20T08:37:08.345Z,994.82
2018-03-20T08:38:08.384Z,994.84
2018-03-20T08:39:08.394Z,994.90
2018-03-20T08:40:08.423Z,994.90
2018-03-20T08:41:08.448Z,994.96
2018-03-20T08:42:08.475Z,994.95
2018-03-20T08:43:08.553Z,994.99
2018-03-20T08:44:08.542Z,994.98
2018-03-20T08:45:08.564Z,995.06
2018-03-20T08:46:08.590Z,995.17
2018-03-20T08:47:08.620Z,995.10
2018-03-20T08:48:08.641Z,995.15
2018-03-20T08:49:08.669Z,995.16
2018-03-20T08:50:08.693Z,995.19
2018-03-20T08:51:08.723Z,995.19
2018-03-20T08:52:08.747Z,995.20
2018-03-20T08:53:08.775Z,995.19
2018-03-20T08:54:08.807Z,995.29
2018-03-20T08:55:08.832Z,995.29
2018-03-20T08:56:08.864Z,995.31
2018-03-20T08:57:08.884Z,995.29
2018-03-20T08:58:08.911Z,995.31
2018-03-20T08:59:08.939Z,995.36
2018-03-20T09:00:08.965Z,995.44
2018-03-20T09:01:08.993Z,995.39
2018-03-20T09:02:09.022Z,995.45
2018-03-20T09:03:09.048Z,995.42
2018-03-20T09:04:09.075Z,995.48
2018-03-20T09:05:09.106Z,995.50
2018-03-20T09:06:09.130Z,995.52
2018-03-20T09:07:09.160Z,995.56
2018-03-20T09:08:09.185Z,995.52
2018-03-20T09:09:09.211Z,995.53
2018-03-20T09:10:09.239Z,995.56
2018-03-20T09:11:09.266Z,995.55
2018-03-20T09:12:09.293Z,995.62
2018-03-20T09:13:09.320Z,995.66
2018-03-20T09:14:09.348Z,995.75
2018-03-20T09:15:09.407Z,995.72
2018-03-20T09:16:09.433Z,995.77
2018-03-20T09:17:09.429Z,995.79
2018-03-20T09:18:09.459Z,995.77
2018-03-20T09:19:09.484Z,995.80
2018-03-20T09:20:09.517Z,995.78
2018-03-20T09:21:09.539Z,995.95
2018-03-20T09:22:09.566Z,995.93
2018-03-20T09:23:09.593Z,995.94
2018-03-20T09:24:09.619Z,995.88
2018-03-20T09:25:09.647Z,995.95
2018-03-20T09:26:09.675Z,995.88
2018-03-20T09:27:09.704Z,995.96
2018-03-20T09:28:09.730Z,995.97
2018-03-20T09:29:09.769Z,995.99
2018-03-20T09:30:09.785Z,995.97
2018-03-20T09:31:09.813Z,996.00
2018-03-20T09:32:09.846Z,996.02
2018-03-20T09:33:09.866Z,996.05
2018-03-20T09:34:09.897Z,996.00
2018-03-20T09:35:09.923Z,996.17
2018-03-20T09:36:09.948Z,996.07
2018-03-20T09:37:10.019Z,996.07
2018-03-20T09:38:10.007Z,996.09
2018-03-20T09:39:10.032Z,996.09
2018-03-20T09:40:10.057Z,996.16
2018-03-20T09:41:10.088Z,996.15
2018-03-20T09:42:10.112Z,996.28
2018-03-20T09:43:10.159Z,996.18
2018-03-20T09:44:10.181Z,996.24
2018-03-20T09:45:10.198Z,996.22
2018-03-20T09:46:10.223Z,996.28
2018-03-20T09:47:10.303Z,996.29
2018-03-20T09:48:10.281Z,996.32
2018-03-20T09:49:10.347Z,996.29
2018-03-20T09:50:10.337Z,996.37
2018-03-20T09:51:10.361Z,996.34
2018-03-20T09:52:10.386Z,996.39
2018-03-20T09:53:10.414Z,996.40
2018-03-20T09:54:10.443Z,996.43
2018-03-20T09:55:10.468Z,996.56
2018-03-20T09:56:10.495Z,996.45
2018-03-20T09:57:10.523Z,996.50
2018-03-20T09:58:10.551Z,996.50
2018-03-20T09:59:10.596Z,996.51
2018-03-20T10:00:10.611Z,996.57
2018-03-20T10:01:17.750Z,996.56
2018-03-20T10:03:03.665Z,996.56
2018-03-20T10:04:03.575Z,996.58
2018-03-20T10:05:58.150Z,996.61
2018-03-20T10:06:58.177Z,996.60
2018-03-20T10:08:51.228Z,996.67
2018-03-20T10:09:51.091Z,996.87
2018-03-20T10:11:45.092Z,996.74
2018-03-20T10:12:45.051Z,996.75
2018-03-20T10:15:17.907Z,996.75
2018-03-20T10:16:17.928Z,996.71
2018-03-20T10:18:38.052Z,996.76
2018-03-20T10:19:38.048Z,996.78
2018-03-20T10:21:58.176Z,996.85
2018-03-20T10:22:58.173Z,996.89
2018-03-20T10:24:51.092Z,996.95
2018-03-20T10:25:51.107Z,996.93
2018-03-20T10:27:44.520Z,997.08
2018-03-20T10:28:44.506Z,997.02
2018-03-20T10:30:37.456Z,997.07
2018-03-20T10:31:37.442Z,997.08
2018-03-20T10:33:32.017Z,997.09
2018-03-20T10:34:32.036Z,997.10
2018-03-20T10:36:39.408Z,997.15
2018-03-20T10:37:39.406Z,997.14
2018-03-20T10:39:32.328Z,997.18
2018-03-20T10:40:32.330Z,997.19
2018-03-20T10:42:26.104Z,997.23
2018-03-20T10:43:26.132Z,997.31
2018-03-20T10:45:33.449Z,997.32
2018-03-20T10:46:33.464Z,997.32
2018-03-20T10:48:53.613Z,997.39
2018-03-20T10:49:53.589Z,997.35
2018-03-20T10:52:14.162Z,997.46
2018-03-20T10:53:13.712Z,997.43
2018-03-20T10:55:33.821Z,997.49
2018-03-20T10:56:33.841Z,997.53
2018-03-20T10:58:41.212Z,997.53
2018-03-20T10:59:41.213Z,997.52
2018-03-20T11:02:13.252Z,997.58
2018-03-20T11:03:13.247Z,997.59
2018-03-20T11:05:45.277Z,997.63
2018-03-20T11:06:45.289Z,997.68
2018-03-20T11:08:38.193Z,997.67
2018-03-20T11:09:38.192Z,997.75
2018-03-20T11:11:31.202Z,997.67
2018-03-20T11:12:31.109Z,997.68
2018-03-20T11:14:51.231Z,997.78
2018-03-20T11:15:51.246Z,997.72
2018-03-20T11:17:58.624Z,997.78
2018-03-20T11:18:58.614Z,997.80
2018-03-20T11:21:18.738Z,997.77
2018-03-20T11:22:18.736Z,997.82
2018-03-20T11:24:38.892Z,997.84
2018-03-20T11:25:38.861Z,997.91
2018-03-20T11:27:59.456Z,997.88
2018-03-20T11:28:58.991Z,997.90
2018-03-20T11:31:19.089Z,997.91
2018-03-20T11:32:19.109Z,997.88
2018-03-20T11:34:12.061Z,997.93
2018-03-20T11:35:12.040Z,997.90
2018-03-20T11:37:04.953Z,997.84
2018-03-20T11:38:04.949Z,997.88
2018-03-20T11:40:24.225Z,998.02
2018-03-20T11:41:24.223Z,997.98
2018-03-20T11:43:17.142Z,997.90
2018-03-20T11:44:17.139Z,998.01
2018-03-20T11:46:10.040Z,998.01
2018-03-20T11:47:10.057Z,998.03
2018-03-20T11:49:02.976Z,998.08
2018-03-20T11:50:02.975Z,998.19
2018-03-20T11:51:55.892Z,998.05
2018-03-20T11:52:55.890Z,998.08
2018-03-20T11:54:48.806Z,998.04
2018-03-20T11:55:48.805Z,998.12
2018-03-20T11:57:41.724Z,998.19
2018-03-20T11:58:41.722Z,998.18
2018-03-20T12:01:14.816Z,998.08
2018-03-20T12:02:14.635Z,998.11
2018-03-20T12:04:22.008Z,998.31
2018-03-20T12:05:22.006Z,998.16
2018-03-20T12:07:15.789Z,998.21
2018-03-20T12:08:15.780Z,998.22
2018-03-20T12:10:08.665Z,998.12
2018-03-20T12:11:08.708Z,998.17
2018-03-20T12:13:01.641Z,998.21
2018-03-20T12:14:01.629Z,998.20
2018-03-20T12:16:21.734Z,998.31
2018-03-20T12:17:21.726Z,998.20
2018-03-20T12:19:14.642Z,998.18
2018-03-20T12:20:14.641Z,998.22
2018-03-20T12:22:07.559Z,998.26
2018-03-20T12:23:07.557Z,998.28
2018-03-20T12:25:00.473Z,998.35
2018-03-20T12:26:00.473Z,998.33
2018-03-20T12:27:53.391Z,998.31
2018-03-20T12:28:53.389Z,998.33
2018-03-20T12:31:11.800Z,998.40
2018-03-20T12:32:11.815Z,998.39
2018-03-20T12:34:04.735Z,998.40
2018-03-20T12:35:04.735Z,998.40
2018-03-20T12:37:10.415Z,998.48
2018-03-20T12:38:10.408Z,998.47
2018-03-20T12:40:03.305Z,998.55
2018-03-20T12:41:03.325Z,998.54
2018-03-20T12:42:56.242Z,998.54
2018-03-20T12:43:56.240Z,998.50
2018-03-20T12:45:49.157Z,998.58
2018-03-20T12:46:49.188Z,998.62
2018-03-20T12:48:42.074Z,998.60
2018-03-20T12:49:42.077Z,998.71
2018-03-20T12:51:34.968Z,998.67
2018-03-20T12:52:34.988Z,998.67
2018-03-20T12:54:27.906Z,998.69
2018-03-20T12:55:27.905Z,998.71
2018-03-20T12:57:20.822Z,998.67
2018-03-20T12:58:20.849Z,998.73
2018-03-20T13:00:13.738Z,998.74
2018-03-20T13:01:13.736Z,998.76
2018-03-20T13:03:19.410Z,998.77
2018-03-20T13:04:19.409Z,998.76
2018-03-20T13:06:12.329Z,998.79
2018-03-20T13:07:12.324Z,998.79
2018-03-20T13:09:17.976Z,998.88
2018-03-20T13:10:17.996Z,998.86
2018-03-20T13:12:10.935Z,998.85
2018-03-20T13:13:10.958Z,998.87
2018-03-20T13:15:05.527Z,998.92
2018-03-20T13:16:05.527Z,998.90
2018-03-20T13:18:11.200Z,998.91
2018-03-20T13:19:11.198Z,998.90
2018-03-20T13:21:04.116Z,998.96
2018-03-20T13:22:04.114Z,998.95
2018-03-20T13:24:09.789Z,999.03
2018-03-20T13:25:09.790Z,999.05
2018-03-20T13:27:02.704Z,999.06
2018-03-20T13:28:02.732Z,999.02
2018-03-20T13:29:56.469Z,999.00
2018-03-20T13:30:56.467Z,999.00
2018-03-20T13:32:49.362Z,999.11
2018-03-20T13:33:49.382Z,999.10
2018-03-20T13:35:42.323Z,999.07
2018-03-20T13:36:42.298Z,999.14
2018-03-20T13:38:35.443Z,999.17
2018-03-20T13:39:35.443Z,999.23
2018-03-20T13:41:28.359Z,999.29
2018-03-20T13:42:28.408Z,999.23
2018-03-20T13:44:35.728Z,999.30
2018-03-20T13:45:35.725Z,999.32